»·PEaware :: N7GL KVCV-KSNA

N7GL :: KVCV-KSNA

FLIGHT INFORMATION

Flight Status: Arrived
Operator: Privately registered:
United States
More flights under this callsign
Pilot: Georg L. (13308)
Aircraft: BEECH AIRCRAFT SUPER KING AIR 350
(B350)
More flights by this aircraft type
Origin: KVCV Socal Logistics
United States
Destination: KSNA John Wayne-Orange Co
United States
More flights between these airports :: More routes between these airports
Route: +V442 PDZ PDZ270013 RNDAL V363 POXKU V8 SLI
File this flight plan on PilotEdge
Remarks:
Altitude:
(Current/Filed)
10,000ft
Speed:
(Current/Filed)
282kts
Departed: 06-Sep-20 12:59 PM
Arrived: 06-Sep-20 01:31 PM
Distance/Time
Traveled:
60nm/0:31
Distance/Time
To Go:
Arrived

Flight Plot

Page will automatically refresh every two minutes.

Flight plan parsing failed; only flown route is shown


Map Options




Map Legend


Flown Route
Filed Route
Departure Airport
Arrival Airport
Navaid (VOR, NDB)
Fix

Horizontal Profiles

Position Reports

Time Latitude Longitude Heading Altitude Ground
Speed
06-Sep-20 12:35 34.588159 -117.376562 318 2878ft 0kts
06-Sep-20 12:36 34.588159 -117.376562 319 2878ft 0kts
06-Sep-20 12:37 34.588159 -117.376562 318 2878ft 0kts
06-Sep-20 12:38 34.588159 -117.376562 318 2878ft 0kts
06-Sep-20 12:39 34.588166 -117.376568 317 2878ft 0kts
06-Sep-20 12:40 34.588166 -117.376568 317 2878ft 0kts
06-Sep-20 12:41 34.588166 -117.376568 317 2878ft 0kts
06-Sep-20 12:42 34.588166 -117.376568 317 2878ft 0kts
06-Sep-20 12:43 34.588166 -117.376568 317 2878ft 0kts
06-Sep-20 12:44 34.588166 -117.376568 317 2878ft 0kts
06-Sep-20 12:45 34.588166 -117.376568 317 2878ft 0kts
06-Sep-20 12:46 34.588166 -117.376568 317 2878ft 0kts
06-Sep-20 12:47 34.588166 -117.376568 317 2878ft 0kts
06-Sep-20 12:48 34.588166 -117.376568 317 2878ft 0kts
06-Sep-20 12:49 34.588166 -117.376568 317 2878ft 0kts
06-Sep-20 12:50 34.588166 -117.376568 317 2878ft 0kts
06-Sep-20 12:51 34.588166 -117.376568 317 2878ft 0kts
06-Sep-20 12:52 34.588166 -117.376568 317 2878ft 0kts
06-Sep-20 12:53 34.588166 -117.376568 317 2878ft 0kts
06-Sep-20 12:54 34.587702 -117.378955 224 2879ft 15kts
06-Sep-20 12:55 34.584369 -117.382963 222 2881ft 15kts
06-Sep-20 12:56 34.580862 -117.384319 195 2888ft 11kts
06-Sep-20 12:57 34.580462 -117.385418 269 2887ft 5kts
06-Sep-20 12:58 34.594453 -117.386708 355 3228ft 146kts
06-Sep-20 12:59 34.617512 -117.422938 272 5671ft 181kts
06-Sep-20 13:00 34.618498 -117.491664 272 7034ft 198kts
06-Sep-20 13:01 34.619269 -117.558526 272 8512ft 200kts
06-Sep-20 13:02 34.601661 -117.614961 178 9788ft 201kts
06-Sep-20 13:03 34.577302 -117.557409 93 10015ft 231kts
06-Sep-20 13:04 34.571754 -117.476090 94 10003ft 247kts
06-Sep-20 13:05 34.565894 -117.394028 94 11056ft 209kts
06-Sep-20 13:06 34.561452 -117.328925 95 12708ft 196kts
06-Sep-20 13:07 34.556725 -117.262945 95 14114ft 197kts
06-Sep-20 13:08 34.549367 -117.197780 117 15661ft 196kts
06-Sep-20 13:09 34.497813 -117.180307 205 16027ft 243kts
06-Sep-20 13:10 34.433969 -117.219487 205 16004ft 268kts
06-Sep-20 13:11 34.364948 -117.261418 205 16026ft 299kts
06-Sep-20 13:12 34.286933 -117.308952 205 15994ft 310kts
06-Sep-20 13:13 34.210526 -117.355109 205 15779ft 309kts
06-Sep-20 13:14 34.131754 -117.402643 205 14903ft 320kts
06-Sep-20 13:15 34.066193 -117.472603 234 13938ft 326kts
06-Sep-20 13:16 34.014067 -117.558935 233 11614ft 306kts
06-Sep-20 13:17 33.970306 -117.642499 264 9072ft 291kts
06-Sep-20 13:18 34.018365 -117.697435 12 6578ft 269kts
06-Sep-20 13:19 34.082415 -117.672398 56 5986ft 222kts
06-Sep-20 13:20 34.063082 -117.616852 179 5079ft 237kts
06-Sep-20 13:21 34.004189 -117.653724 210 3995ft 238kts
06-Sep-20 13:22 33.951983 -117.691081 209 4005ft 212kts
06-Sep-20 13:23 33.899540 -117.726845 205 3996ft 217kts
06-Sep-20 13:24 33.849493 -117.758502 207 3555ft 184kts
06-Sep-20 13:25 33.806127 -117.786133 207 2854ft 168kts
06-Sep-20 13:26 33.766324 -117.811375 207 1941ft 151kts
06-Sep-20 13:27 33.733492 -117.832210 207 1223ft 128kts
06-Sep-20 13:28 33.703881 -117.850931 206 555ft 106kts
06-Sep-20 13:29 33.678505 -117.867070 207 62ft 86kts
06-Sep-20 13:30 33.669376 -117.871876 137 61ft 7kts
06-Sep-20 13:31 33.668997 -117.871336 121 61ft 0kts
06-Sep-20 13:32 33.670490 -117.869510 40 61ft 18kts
06-Sep-20 13:33 33.671552 -117.867265 6 61ft 0kts
06-Sep-20 13:34 33.671552 -117.867265 6 61ft 0kts
06-Sep-20 13:35 33.671552 -117.867265 6 61ft 0kts
06-Sep-20 13:37 33.671552 -117.867265 6 61ft 0kts
06-Sep-20 13:38 33.671552 -117.867265 6 61ft 0kts

Navigation Log

Ident Type
Flight plan parsing failed, navigation log unavailable